x

Southeast Bering Sea -205nm Wnw Of Dutch Harbor, Ak (46073) Wave Buoy

10:50 - Mon 26th Sep 2016 All times are UTC.

  • Sig Wave height 6.9ft
  • Swell Direction
  • Peak Period 8s
  • Average Period 6s
  • Wind
    13mph, 18mph gusts
  • Sea Temp 50°f
  • Aire Temp 50°f
  • Sea Pressure 1019.8mb

More Historic Weather Station data

Upgrade to MSW Pro to gain access to the past 30 days of data for over 8000 Wavebouys and Weather Stations around the globe.

Join Pro

Comparision Forecast

View Surf forecast
   
lun 09/26 10:50 7ft 8s 6s 13 18 mph 1019.8mb 50f 50f
9:50 6.5ft 8s 6s 18 20 mph 1019.2mb 50f 49f
8:50 7ft 8s 6s 18 20 mph 1018.8mb 50f 50f
7:50 7ft 8s  -  18 20 mph 1018.1mb 50f 49f
6:50 7.5ft 8s 6s 20 27 mph 1017.3mb 50f 50f
5:50 7.5ft 8s 6s 18 22 mph 1016.6mb 50f 50f
4:50 8.5ft 8s 6s 22 29 mph 1015.7mb 50f 50f
3:50 8ft 8s 6s 20 25 mph 1015mb 50f 50f
2:50 8ft 8s 6s 22 29 mph 1014.4mb 50f 50f
1:50 9ft 8s 6s 22 27 mph 1014.1mb 50f 50f
12:50 8ft 8s 6s 22 27 mph 1013.8mb 50f 50f
11:50 8ft 8s 6s 20 25 mph 1013.5mb 50f 50f
10:50 7.5ft 8s 6s 25 31 mph 1013.1mb 50f 50f
9:50 8ft 8s 6s 25 29 mph 1012.5mb 50f 50f
8:50 8ft 8s 6s 20 25 mph 1012.1mb 50f 50f
7:50 8.5ft 8s 6s 20 25 mph 1012mb 50f 50f
6:50 9ft 8s 7s 20 25 mph 1011.9mb 50f 50f
5:50 8ft 7s 6s 22 27 mph 1011.1mb 50f 50f
4:50 9ft 8s 6s 25 29 mph 1010.7mb 50f 50f
3:50 9.5ft 8s 6s 27 34 mph 1010.5mb 51f 49f
2:50 10ft 8s 6s 27 34 mph 1010.9mb 51f 50f
1:50 9ft 8s 6s 27 31 mph 1011.9mb 51f 49f
12:50 8.5ft 8s 6s 27 34 mph 1012.9mb 50f 49f
dom 09/25 11:50 8ft 7s 6s 25 31 mph 1014mb 50f 50f
10:50 8ft 7s 6s 25 29 mph 1014.7mb 50f 50f
9:50 8ft 7s 6s 25 31 mph 1015.6mb 50f 50f
8:50 6.5ft 6s 5s 25 29 mph 1016mb 50f 49f
7:50 6ft 7s 5s 27 34 mph 1016.2mb 50f 49f
6:50 5ft 5s 5s 25 27 mph 1016.5mb 50f 49f
5:50 4.5ft 5s 5s 22 27 mph 1017.1mb 50f 50f
4:50 4.5ft 5s 5s 20 25 mph 1017.2mb 51f 50f
3:50 4.5ft 8s 5s 22 25 mph 1017.4mb 51f 49f
2:50 4.5ft 8s 5s 18 20 mph 1018.1mb 51f 49f
1:50 4.5ft 8s 5s 18 22 mph 1018.7mb 51f 49f
12:50 5ft 8s 6s 18 20 mph 1019.1mb 51f 49f
11:50 5ft 8s 6s 16 22 mph 1019.6mb 51f 47f
10:50 4.5ft 6s 6s 13 16 mph 1019.6mb 51f 49f
9:50 4.5ft 8s 6s 13 16 mph 1019.9mb 51f 49f
8:50 4.5ft 7s 6s 11 13 mph 1020.1mb 51f 49f
7:50 4.5ft 8s 7s 9
mph
1020.2mb 51f 49f
6:50 4.5ft 8s 6s 9 11 mph 1020.3mb 51f 49f
5:50 4.5ft 8s 6s 7 9 mph 1020mb 51f 49f
4:50 4.5ft 7s 6s 9
mph
1019.8mb 51f 49f
3:50 4.5ft 7s 6s 9
mph
1019.3mb 51f 49f
2:50 4.5ft 9s 6s 7 9 mph 1019.1mb 51f 49f
1:50 4.5ft 7s 6s 7 9 mph 1018.9mb 51f 49f
12:50 5ft 7s 6s 11 13 mph 1018.7mb 51f 49f
sáb 09/24 11:50 4.5ft 7s 6s 11 13 mph 1018.6mb 51f 49f
10:50 4.5ft 7s 5s 11
mph
1018.4mb 51f 49f
9:50 4.5ft 7s 5s 16 20 mph 1018.2mb 51f 47f
8:50 4.5ft 6s 6s 11 13 mph 1017.8mb 51f 49f
7:50 4ft 7s 5s 9 13 mph 1017.2mb 50f 49f
6:50 4.5ft 7s 5s 11 13 mph 1016.7mb 50f 49f
5:50 4.5ft 7s 5s 16 18 mph 1016.2mb 50f 49f
4:50 4.5ft 8s 5s 16 18 mph 1015.5mb 50f 49f
3:50 4.5ft 7s 5s 18 20 mph 1014.8mb 50f 49f
2:50 5ft 8s 5s 13 16 mph 1014.3mb 50f 48f
1:50 5ft 8s 5s 11 13 mph 1014mb 50f 48f
12:50 4.5ft 8s 5s 18 20 mph 1013.7mb 50f 48f
11:50 5ft 8s 6s 13 16 mph 1013.8mb 50f 48f
10:50 5ft 8s 6s 11 13 mph 1013.9mb 50f 47f
9:50 6ft 8s 6s 11 13 mph 1013.8mb 50f 48f
8:50 6ft 8s 6s 11 13 mph 1013.6mb 50f 48f
7:50 6ft 7s 6s 13 16 mph 1013.4mb 51f 48f
6:50 6ft 8s 6s 16 20 mph 1013mb 51f 49f
5:50 6ft 8s 6s 16 20 mph 1012.3mb 51f 49f
4:50 6ft 8s 6s 18 20 mph 1011.6mb 51f 49f
3:50 6ft 9s 6s 16 20 mph 1011.1mb 51f 49f
2:50 6ft 8s 6s 18 22 mph 1010.4mb 51f 49f
1:50 6ft 9s 6s 18 20 mph 1009.9mb 51f 49f
12:50 7ft 8s 6s 18 22 mph 1009.3mb 51f 49f
vie 09/23 11:50 6.5ft 8s 6s 22 27 mph 1008.8mb 51f 49f
10:50 7.5ft 8s 6s 20 25 mph 1008.2mb 51f 49f
9:50 7.5ft 8s 6s 20 25 mph 1007.5mb 51f 49f
8:50 7ft 8s 6s 25 29 mph 1006.6mb 51f 49f
7:50 6.5ft 8s 6s 20 25 mph 1005.8mb 51f 47f
5:50 7ft 8s 6s 22 27 mph 1003.7mb 51f 49f
4:50 6.5ft 8s 5s 22 27 mph 1003.1mb 51f 48f
3:50 7ft 8s 5s 22 27 mph 1002.2mb 51f 49f
2:50 6.5ft 9s 5s 20 25 mph 1001.6mb 51f 49f
12:50 7ft 8s 6s 22 27 mph 1000.5mb 51f 49f
11:50 7ft 9s 6s 22 27 mph 1000.1mb 51f 49f
10:50 7ft 8s 6s 22 27 mph 999.7mb 51f 49f
9:50 6.5ft 8s 6s 20 25 mph 999.3mb 51f 49f
8:50 6.5ft 8s 6s 18 25 mph 998.8mb 51f 48f
6:50 6ft 8s 6s 13 20 mph 997.7mb 51f 48f
5:50 6ft 8s 5s 20 25 mph 997.1mb 51f 48f
4:50 6.5ft 8s 6s 22 27 mph 996.4mb 51f 48f
3:50 6ft 9s 5s 20 25 mph 996mb 51f 49f
2:50 6ft 9s 6s 16 22 mph 995.9mb 51f 48f
1:50 6.5ft 8s 6s 18 20 mph 995.6mb 51f 48f
12:50 6ft 9s 5s 18 20 mph 995.4mb 51f 48f